BAW9VR EGKK-EHAM
Flight info
| Callsign | BAW9VR |
|---|---|
| Flight time | 0h 40m |
| Altitude | 27000 |
| Route | FRANE M604 GASBA M197 REDFA |
| Aircraft | A321/M-SDE3FGHIRWY/LB1 |
Departure
| Time | 2026-04-18 05:42 |
|---|---|
| Airport | London Gatwick Airport (EGKK) |
Arrival
| Time | 2026-04-18 06:23 |
|---|---|
| Airport | Amsterdam Airport Schiphol (EHAM) |
| Time | Latitude | Longitude | Altitude | Speed | Heading |
|---|---|---|---|---|---|
| 2026-04-18 05:26 | 51.15505 | -0.16843 | 209 ft | 0 kts | 348° |
| 2026-04-18 05:34 | 51.15500 | -0.16842 | 208 ft | 3 kts | 348° |
| 2026-04-18 05:34 | 51.15474 | -0.16833 | 206 ft | 4 kts | 348° |
| 2026-04-18 05:35 | 51.15452 | -0.16831 | 216 ft | 4 kts | 45° |
| 2026-04-18 05:35 | 51.15444 | -0.16858 | 212 ft | 4 kts | 77° |
| 2026-04-18 05:35 | 51.15440 | -0.16883 | 204 ft | 0 kts | 77° |
| 2026-04-18 05:38 | 51.15441 | -0.16882 | 204 ft | 1 kts | 77° |
| 2026-04-18 05:39 | 51.15446 | -0.16846 | 204 ft | 5 kts | 77° |
| 2026-04-18 05:39 | 51.15453 | -0.16784 | 210 ft | 6 kts | 83° |
| 2026-04-18 05:39 | 51.15430 | -0.16731 | 212 ft | 7 kts | 152° |
| 2026-04-18 05:39 | 51.15382 | -0.16707 | 213 ft | 8 kts | 165° |
| 2026-04-18 05:40 | 51.15326 | -0.16681 | 207 ft | 9 kts | 162° |
| 2026-04-18 05:40 | 51.15261 | -0.16657 | 208 ft | 10 kts | 168° |
| 2026-04-18 05:40 | 51.15186 | -0.16631 | 203 ft | 12 kts | 166° |
| 2026-04-18 05:40 | 51.15136 | -0.16701 | 206 ft | 8 kts | 256° |
| 2026-04-18 05:41 | 51.15134 | -0.16711 | 204 ft | 0 kts | 257° |
| 2026-04-18 05:41 | 51.15123 | -0.16791 | 208 ft | 33 kts | 257° |
| 2026-04-18 05:42 | 51.15019 | -0.17543 | 209 ft | 104 kts | 257° |
| 2026-04-18 05:42 | 51.14819 | -0.18993 | 210 ft | 161 kts | 257° |
| 2026-04-18 05:42 | 51.14570 | -0.20814 | 740 ft | 168 kts | 258° |
| 2026-04-18 05:42 | 51.14329 | -0.22622 | 1551 ft | 166 kts | 260° |
| 2026-04-18 05:43 | 51.14084 | -0.24404 | 2353 ft | 163 kts | 260° |
| 2026-04-18 05:43 | 51.13840 | -0.26164 | 2996 ft | 163 kts | 259° |
| 2026-04-18 05:43 | 51.13701 | -0.27955 | 3537 ft | 168 kts | 273° |
| 2026-04-18 05:43 | 51.14043 | -0.29861 | 3782 ft | 193 kts | 296° |
| 2026-04-18 05:44 | 51.15010 | -0.31513 | 3997 ft | 219 kts | 324° |
| 2026-04-18 05:44 | 51.16517 | -0.32220 | 4499 ft | 236 kts | 356° |
| 2026-04-18 05:44 | 51.18125 | -0.31505 | 5158 ft | 251 kts | 32° |
| 2026-04-18 05:44 | 51.19251 | -0.29357 | 5757 ft | 260 kts | 71° |
| 2026-04-18 05:45 | 51.19686 | -0.26548 | 6402 ft | 264 kts | 81° |
| 2026-04-18 05:45 | 51.20023 | -0.23651 | 7069 ft | 267 kts | 82° |
| 2026-04-18 05:45 | 51.20350 | -0.20717 | 7747 ft | 270 kts | 82° |
| 2026-04-18 05:45 | 51.20703 | -0.17658 | 8042 ft | 293 kts | 81° |
| 2026-04-18 05:46 | 51.21104 | -0.14394 | 8501 ft | 304 kts | 80° |
| 2026-04-18 05:46 | 51.21535 | -0.11062 | 9154 ft | 309 kts | 80° |
| 2026-04-18 05:46 | 51.21979 | -0.07688 | 9857 ft | 312 kts | 79° |
| 2026-04-18 05:46 | 51.22428 | -0.04275 | 10426 ft | 321 kts | 79° |
| 2026-04-18 05:47 | 51.22899 | -0.00675 | 10563 ft | 342 kts | 79° |
| 2026-04-18 05:47 | 51.23397 | 0.03156 | 10538 ft | 363 kts | 79° |
| 2026-04-18 05:47 | 51.23747 | 0.05861 | 10672 ft | 373 kts | 79° |
| 2026-04-18 05:47 | 51.24277 | 0.09958 | 11127 ft | 379 kts | 79° |
| 2026-04-18 05:48 | 51.24816 | 0.14100 | 11667 ft | 383 kts | 79° |
| 2026-04-18 05:48 | 51.25290 | 0.18297 | 12197 ft | 386 kts | 86° |
| 2026-04-18 05:48 | 51.25341 | 0.22579 | 12735 ft | 387 kts | 97° |
| 2026-04-18 05:48 | 51.25058 | 0.26858 | 13277 ft | 390 kts | 99° |
| 2026-04-18 05:49 | 51.25044 | 0.31207 | 13775 ft | 397 kts | 83° |
| 2026-04-18 05:49 | 51.25854 | 0.35431 | 14248 ft | 402 kts | 63° |
| 2026-04-18 05:49 | 51.27403 | 0.39168 | 14740 ft | 405 kts | 52° |
| 2026-04-18 05:49 | 51.29106 | 0.42781 | 15251 ft | 409 kts | 52° |
| 2026-04-18 05:50 | 51.30826 | 0.46410 | 15776 ft | 412 kts | 52° |
| 2026-04-18 05:50 | 51.32562 | 0.50080 | 16300 ft | 415 kts | 52° |
| 2026-04-18 05:50 | 51.34308 | 0.53786 | 17098 ft | 419 kts | 52° |
| 2026-04-18 05:50 | 51.36155 | 0.57402 | 17570 ft | 421 kts | 44° |
| 2026-04-18 05:51 | 51.38361 | 0.60503 | 18031 ft | 422 kts | 33° |
| 2026-04-18 05:51 | 51.40831 | 0.62918 | 18485 ft | 422 kts | 22° |
| 2026-04-18 05:51 | 51.43590 | 0.64653 | 18885 ft | 420 kts | 12° |
| 2026-04-18 05:51 | 51.46393 | 0.65750 | 19257 ft | 421 kts | 8° |
| 2026-04-18 05:52 | 51.49293 | 0.66844 | 19665 ft | 424 kts | 8° |
| 2026-04-18 05:52 | 51.52179 | 0.67939 | 20059 ft | 428 kts | 8° |
| 2026-04-18 05:52 | 51.55082 | 0.69045 | 20456 ft | 431 kts | 8° |
| 2026-04-18 05:52 | 51.57969 | 0.70147 | 20851 ft | 434 kts | 9° |
| 2026-04-18 05:53 | 51.60914 | 0.71274 | 21254 ft | 437 kts | 8° |
| 2026-04-18 05:53 | 51.63879 | 0.72404 | 21649 ft | 439 kts | 8° |
| 2026-04-18 05:53 | 51.66866 | 0.73540 | 22043 ft | 442 kts | 8° |
| 2026-04-18 05:53 | 51.69868 | 0.74683 | 22435 ft | 445 kts | 8° |
| 2026-04-18 05:54 | 51.72894 | 0.75838 | 22823 ft | 448 kts | 8° |
| 2026-04-18 05:54 | 51.75907 | 0.77256 | 23189 ft | 456 kts | 19° |
| 2026-04-18 05:54 | 51.78679 | 0.79833 | 23551 ft | 466 kts | 35° |
| 2026-04-18 05:54 | 51.81081 | 0.83380 | 23897 ft | 471 kts | 47° |
| 2026-04-18 05:55 | 51.83078 | 0.87600 | 24240 ft | 474 kts | 58° |
| 2026-04-18 05:55 | 51.84619 | 0.92308 | 24535 ft | 476 kts | 69° |
| 2026-04-18 05:55 | 51.85716 | 0.97372 | 24801 ft | 478 kts | 74° |
| 2026-04-18 05:55 | 51.86734 | 1.02502 | 25069 ft | 481 kts | 75° |
| 2026-04-18 05:56 | 51.87730 | 1.07684 | 25342 ft | 484 kts | 75° |
| 2026-04-18 05:56 | 51.88720 | 1.12912 | 25631 ft | 487 kts | 76° |
| 2026-04-18 05:56 | 51.89715 | 1.18174 | 25917 ft | 490 kts | 76° |
| 2026-04-18 05:56 | 51.90716 | 1.23458 | 26214 ft | 493 kts | 76° |
| 2026-04-18 05:57 | 51.92734 | 1.34129 | 26785 ft | 498 kts | 76° |
| 2026-04-18 05:57 | 51.93752 | 1.39506 | 27066 ft | 501 kts | 76° |
| 2026-04-18 05:57 | 51.94774 | 1.44903 | 27188 ft | 500 kts | 76° |
| 2026-04-18 05:58 | 51.95791 | 1.50265 | 27200 ft | 496 kts | 76° |
| 2026-04-18 05:58 | 51.96799 | 1.55600 | 27203 ft | 494 kts | 76° |
| 2026-04-18 05:58 | 51.97795 | 1.60922 | 27202 ft | 494 kts | 76° |
| 2026-04-18 05:58 | 51.98788 | 1.66259 | 27203 ft | 494 kts | 76° |
| 2026-04-18 05:59 | 51.99752 | 1.71599 | 27204 ft | 493 kts | 77° |
| 2026-04-18 05:59 | 52.00639 | 1.76967 | 27191 ft | 492 kts | 79° |
| 2026-04-18 05:59 | 52.01465 | 1.82361 | 27198 ft | 492 kts | 80° |
| 2026-04-18 05:59 | 52.02260 | 1.87753 | 27196 ft | 492 kts | 80° |
| 2026-04-18 06:00 | 52.03053 | 1.93159 | 27218 ft | 492 kts | 80° |
| 2026-04-18 06:00 | 52.03854 | 1.98556 | 27182 ft | 491 kts | 80° |
| 2026-04-18 06:00 | 52.04667 | 2.03935 | 27099 ft | 487 kts | 80° |
| 2026-04-18 06:00 | 52.05481 | 2.09237 | 26841 ft | 481 kts | 79° |
| 2026-04-18 06:01 | 52.06291 | 2.14477 | 26583 ft | 477 kts | 79° |
| 2026-04-18 06:01 | 52.07097 | 2.19691 | 26326 ft | 474 kts | 79° |
| 2026-04-18 06:01 | 52.07890 | 2.24864 | 25824 ft | 469 kts | 80° |
| 2026-04-18 06:01 | 52.08668 | 2.29995 | 25240 ft | 466 kts | 80° |
| 2026-04-18 06:02 | 52.09432 | 2.35094 | 24676 ft | 463 kts | 80° |
| 2026-04-18 06:02 | 52.10186 | 2.40163 | 24116 ft | 460 kts | 80° |
| 2026-04-18 06:02 | 52.10947 | 2.45188 | 23549 ft | 457 kts | 77° |
| 2026-04-18 06:02 | 52.12035 | 2.50025 | 23019 ft | 453 kts | 66° |
| 2026-04-18 06:03 | 52.13540 | 2.54481 | 22824 ft | 449 kts | 60° |
| 2026-04-18 06:03 | 52.15132 | 2.58839 | 22533 ft | 447 kts | 60° |
| 2026-04-18 06:03 | 52.16711 | 2.63187 | 22229 ft | 445 kts | 60° |
| 2026-04-18 06:03 | 52.18275 | 2.67517 | 21987 ft | 443 kts | 60° |
| 2026-04-18 06:04 | 52.19829 | 2.71833 | 21707 ft | 440 kts | 60° |
| 2026-04-18 06:04 | 52.21371 | 2.76128 | 21431 ft | 438 kts | 60° |
| 2026-04-18 06:04 | 52.22906 | 2.80412 | 21155 ft | 436 kts | 60° |
| 2026-04-18 06:04 | 52.24430 | 2.84671 | 20894 ft | 434 kts | 60° |
| 2026-04-18 06:05 | 52.25945 | 2.88904 | 20635 ft | 431 kts | 60° |
| 2026-04-18 06:05 | 52.27453 | 2.93124 | 20357 ft | 429 kts | 60° |
| 2026-04-18 06:05 | 52.28950 | 2.97310 | 20055 ft | 426 kts | 60° |
| 2026-04-18 06:05 | 52.30439 | 3.01477 | 19821 ft | 423 kts | 60° |
| 2026-04-18 06:06 | 52.31914 | 3.05615 | 19562 ft | 420 kts | 60° |
| 2026-04-18 06:06 | 52.33375 | 3.09722 | 19302 ft | 417 kts | 60° |
| 2026-04-18 06:06 | 52.34833 | 3.13821 | 19032 ft | 415 kts | 60° |
| 2026-04-18 06:06 | 52.36280 | 3.17894 | 18769 ft | 413 kts | 60° |
| 2026-04-18 06:07 | 52.37713 | 3.21946 | 18515 ft | 411 kts | 60° |
| 2026-04-18 06:07 | 52.39139 | 3.25987 | 18236 ft | 409 kts | 60° |
| 2026-04-18 06:07 | 52.40553 | 3.30012 | 17979 ft | 407 kts | 60° |
| 2026-04-18 06:07 | 52.41958 | 3.34020 | 17730 ft | 405 kts | 60° |
| 2026-04-18 06:08 | 52.43357 | 3.38013 | 17482 ft | 403 kts | 60° |
| 2026-04-18 06:08 | 52.44617 | 3.42100 | 17225 ft | 400 kts | 69° |
| 2026-04-18 06:08 | 52.45430 | 3.46436 | 16981 ft | 397 kts | 78° |
| 2026-04-18 06:08 | 52.46053 | 3.50835 | 16728 ft | 394 kts | 78° |
| 2026-04-18 06:09 | 52.46675 | 3.55202 | 16483 ft | 392 kts | 78° |
| 2026-04-18 06:09 | 52.47295 | 3.59536 | 16262 ft | 389 kts | 78° |
| 2026-04-18 06:09 | 52.47912 | 3.63846 | 16010 ft | 387 kts | 78° |
| 2026-04-18 06:09 | 52.48524 | 3.68128 | 15769 ft | 385 kts | 78° |
| 2026-04-18 06:10 | 52.49130 | 3.72392 | 15523 ft | 382 kts | 78° |
| 2026-04-18 06:10 | 52.49725 | 3.76593 | 15094 ft | 376 kts | 78° |
| 2026-04-18 06:10 | 52.50310 | 3.80741 | 14606 ft | 372 kts | 78° |
| 2026-04-18 06:10 | 52.50891 | 3.84860 | 14115 ft | 368 kts | 78° |
| 2026-04-18 06:11 | 52.51464 | 3.88942 | 13578 ft | 365 kts | 78° |
| 2026-04-18 06:11 | 52.51936 | 3.92998 | 13098 ft | 359 kts | 86° |
| 2026-04-18 06:11 | 52.51940 | 3.97036 | 12630 ft | 351 kts | 98° |
| 2026-04-18 06:11 | 52.51473 | 4.00916 | 12169 ft | 342 kts | 110° |
| 2026-04-18 06:12 | 52.50648 | 4.04530 | 11738 ft | 336 kts | 115° |
| 2026-04-18 06:12 | 52.49786 | 4.08066 | 11306 ft | 332 kts | 115° |
| 2026-04-18 06:12 | 52.48936 | 4.11564 | 10850 ft | 328 kts | 115° |
| 2026-04-18 06:12 | 52.48100 | 4.14992 | 10647 ft | 318 kts | 115° |
| 2026-04-18 06:13 | 52.47295 | 4.18294 | 10471 ft | 307 kts | 115° |
| 2026-04-18 06:13 | 52.46510 | 4.21513 | 10211 ft | 302 kts | 115° |
| 2026-04-18 06:13 | 52.45730 | 4.24689 | 10048 ft | 300 kts | 115° |
| 2026-04-18 06:13 | 52.44948 | 4.27847 | 9916 ft | 299 kts | 115° |
| 2026-04-18 06:14 | 52.44162 | 4.31013 | 9567 ft | 300 kts | 115° |
| 2026-04-18 06:14 | 52.43582 | 4.34293 | 9102 ft | 303 kts | 96° |
| 2026-04-18 06:14 | 52.43870 | 4.37692 | 8636 ft | 304 kts | 68° |
| 2026-04-18 06:14 | 52.45040 | 4.40535 | 8235 ft | 301 kts | 41° |
| 2026-04-18 06:15 | 52.46799 | 4.42335 | 7799 ft | 297 kts | 22° |
| 2026-04-18 06:15 | 52.48665 | 4.43744 | 7460 ft | 294 kts | 22° |
| 2026-04-18 06:15 | 52.50512 | 4.45169 | 7073 ft | 293 kts | 23° |
| 2026-04-18 06:15 | 52.52349 | 4.46607 | 6706 ft | 291 kts | 23° |
| 2026-04-18 06:16 | 52.54161 | 4.48030 | 6421 ft | 285 kts | 23° |
| 2026-04-18 06:16 | 52.55913 | 4.49423 | 6290 ft | 274 kts | 27° |
| 2026-04-18 06:16 | 52.57355 | 4.51370 | 6156 ft | 266 kts | 51° |
| 2026-04-18 06:16 | 52.58208 | 4.53992 | 5905 ft | 260 kts | 75° |
| 2026-04-18 06:17 | 52.58408 | 4.56907 | 5539 ft | 256 kts | 92° |
| 2026-04-18 06:17 | 52.58400 | 4.59847 | 5166 ft | 257 kts | 92° |
| 2026-04-18 06:17 | 52.58319 | 4.62756 | 4863 ft | 253 kts | 103° |
| 2026-04-18 06:17 | 52.57760 | 4.65442 | 4597 ft | 245 kts | 122° |
| 2026-04-18 06:18 | 52.56765 | 4.67660 | 4382 ft | 239 kts | 136° |
| 2026-04-18 06:18 | 52.55644 | 4.69680 | 4172 ft | 239 kts | 136° |
| 2026-04-18 06:18 | 52.54513 | 4.71676 | 3964 ft | 237 kts | 142° |
| 2026-04-18 06:18 | 52.53158 | 4.73139 | 3759 ft | 232 kts | 161° |
| 2026-04-18 06:19 | 52.51638 | 4.73962 | 3564 ft | 230 kts | 167° |
| 2026-04-18 06:19 | 52.50103 | 4.74721 | 3243 ft | 230 kts | 167° |
| 2026-04-18 06:19 | 52.48587 | 4.75350 | 3021 ft | 218 kts | 178° |
| 2026-04-18 06:19 | 52.47113 | 4.75296 | 2789 ft | 209 kts | 187° |
| 2026-04-18 06:20 | 52.45671 | 4.75158 | 2514 ft | 206 kts | 187° |
| 2026-04-18 06:20 | 52.44265 | 4.75025 | 2231 ft | 205 kts | 187° |
| 2026-04-18 06:20 | 52.42831 | 4.74893 | 1944 ft | 204 kts | 187° |
| 2026-04-18 06:20 | 52.41442 | 4.74766 | 1689 ft | 195 kts | 187° |
| 2026-04-18 06:21 | 52.40141 | 4.74648 | 1415 ft | 185 kts | 187° |
| 2026-04-18 06:21 | 52.38903 | 4.74535 | 1171 ft | 172 kts | 187° |
| 2026-04-18 06:21 | 52.37762 | 4.74432 | 955 ft | 156 kts | 187° |
| 2026-04-18 06:21 | 52.36711 | 4.74334 | 740 ft | 149 kts | 187° |
| 2026-04-18 06:22 | 52.35685 | 4.74239 | 539 ft | 146 kts | 186° |
| 2026-04-18 06:22 | 52.34679 | 4.74146 | 340 ft | 145 kts | 185° |
| 2026-04-18 06:22 | 52.33675 | 4.74051 | 164 ft | 143 kts | 186° |
| 2026-04-18 06:22 | 52.32683 | 4.73970 | 2 ft | 137 kts | 185° |
| 2026-04-18 06:23 | 52.31886 | 4.73892 | -1 ft | 90 kts | 183° |
| 2026-04-18 06:23 | 52.31432 | 4.73851 | -3 ft | 42 kts | 182° |
| 2026-04-18 06:23 | 52.31226 | 4.73888 | -2 ft | 28 kts | 155° |
| 2026-04-18 06:23 | 52.31051 | 4.74025 | -1 ft | 28 kts | 153° |
| 2026-04-18 06:24 | 52.30863 | 4.74090 | -1 ft | 28 kts | 182° |
| 2026-04-18 06:24 | 52.30668 | 4.74074 | -1 ft | 28 kts | 183° |
| 2026-04-18 06:24 | 52.30475 | 4.74074 | -1 ft | 28 kts | 163° |
| 2026-04-18 06:24 | 52.30328 | 4.74290 | -1 ft | 29 kts | 130° |
| 2026-04-18 06:25 | 52.30258 | 4.74423 | 2 ft | 7 kts | 129° |
| 2026-04-18 06:25 | 52.30235 | 4.74467 | 4 ft | 3 kts | 131° |
| 2026-04-18 06:25 | 52.30232 | 4.74475 | 5 ft | 0 kts | 131° |
| 2026-04-18 06:25 | 52.30229 | 4.74474 | 10 ft | 2 kts | 148° |
| 2026-04-18 06:26 | 52.30200 | 4.74530 | 10 ft | 9 kts | 129° |
| 2026-04-18 06:26 | 52.30157 | 4.74613 | 10 ft | 10 kts | 131° |
| 2026-04-18 06:26 | 52.30100 | 4.74717 | 4 ft | 16 kts | 131° |
| 2026-04-18 06:26 | 52.30012 | 4.74877 | -1 ft | 21 kts | 132° |
| 2026-04-18 06:27 | 52.29915 | 4.75057 | -1 ft | 22 kts | 130° |
| 2026-04-18 06:27 | 52.29813 | 4.75252 | -1 ft | 23 kts | 131° |
| 2026-04-18 06:27 | 52.29798 | 4.75479 | -1 ft | 23 kts | 62° |
| 2026-04-18 06:27 | 52.29882 | 4.75702 | -1 ft | 24 kts | 57° |
| 2026-04-18 06:28 | 52.29973 | 4.75934 | -1 ft | 25 kts | 57° |
| 2026-04-18 06:28 | 52.30064 | 4.76177 | -1 ft | 26 kts | 58° |
| 2026-04-18 06:28 | 52.30130 | 4.76345 | -1 ft | 26 kts | 58° |
| 2026-04-18 06:28 | 52.30260 | 4.76686 | -1 ft | 27 kts | 57° |
| 2026-04-18 06:29 | 52.30363 | 4.76951 | -1 ft | 28 kts | 57° |
| 2026-04-18 06:29 | 52.30434 | 4.77136 | -1 ft | 29 kts | 58° |
| 2026-04-18 06:29 | 52.30539 | 4.77340 | -1 ft | 11 kts | 349° |
| 2026-04-18 06:29 | 52.30585 | 4.77300 | -1 ft | 12 kts | 329° |
| 2026-04-18 06:30 | 52.30642 | 4.77207 | -1 ft | 13 kts | 286° |
| 2026-04-18 06:30 | 52.30686 | 4.77155 | -1 ft | 8 kts | 356° |
| 2026-04-18 06:30 | 52.30709 | 4.77156 | -1 ft | 2 kts | 2° |
| 2026-04-18 06:30 | 52.30710 | 4.77156 | -1 ft | 0 kts | 2° |
| 2026-04-18 06:34 | 52.30710 | 4.77155 | -1 ft | 0 kts | 3° |